createdAt,value
2023-12-20T00:00:47.345Z,1004.63
2023-12-20T00:01:47.398Z,1004.65
2023-12-20T00:02:47.269Z,1004.62
2023-12-20T00:03:47.303Z,1004.63
2023-12-20T00:04:47.466Z,1004.66
2023-12-20T00:05:47.212Z,1004.65
2023-12-20T00:06:47.419Z,1004.67
2023-12-20T00:07:47.738Z,1004.64
2023-12-20T00:08:47.293Z,1004.62
2023-12-20T00:09:47.264Z,1004.56
2023-12-20T00:10:47.281Z,1004.58
2023-12-20T00:11:47.430Z,1004.56
2023-12-20T00:12:47.276Z,1004.51
2023-12-20T00:13:49.989Z,1004.52
2023-12-20T00:14:47.132Z,1004.50
2023-12-20T00:15:47.273Z,1004.52
2023-12-20T00:16:47.307Z,1004.51
2023-12-20T00:17:47.441Z,1004.48
2023-12-20T00:18:47.464Z,1004.52
2023-12-20T00:19:47.176Z,1004.47
2023-12-20T00:20:47.060Z,1004.49
2023-12-20T00:21:47.081Z,1004.44
2023-12-20T00:22:47.113Z,1004.43
2023-12-20T00:23:47.044Z,1004.42
2023-12-20T00:24:47.132Z,1004.43
2023-12-20T00:25:46.992Z,1004.42
2023-12-20T00:26:47.008Z,1004.42
2023-12-20T00:27:47.408Z,1004.45
2023-12-20T00:28:46.955Z,1004.40
2023-12-20T00:29:46.937Z,1004.44
2023-12-20T00:30:47.110Z,1004.40
2023-12-20T00:31:47.002Z,1004.39
2023-12-20T00:32:46.990Z,1004.35
2023-12-20T00:33:47.046Z,1004.37
2023-12-20T00:34:47.033Z,1004.39
2023-12-20T00:35:46.903Z,1004.38
2023-12-20T00:36:46.944Z,1004.35
2023-12-20T00:37:47.105Z,1004.32
2023-12-20T00:38:46.847Z,1004.34
2023-12-20T00:39:46.992Z,1004.28
2023-12-20T00:40:46.874Z,1004.28
2023-12-20T00:41:46.841Z,1004.31
2023-12-20T00:42:46.827Z,1004.29
2023-12-20T00:43:46.818Z,1004.29
2023-12-20T00:44:46.790Z,1004.28
2023-12-20T00:45:46.803Z,1004.29
2023-12-20T00:46:46.763Z,1004.30
2023-12-20T00:47:47.261Z,1004.31
2023-12-20T00:48:46.838Z,1004.33
2023-12-20T00:49:46.811Z,1004.32
2023-12-20T00:50:46.748Z,1004.29
2023-12-20T00:51:46.754Z,1004.31
2023-12-20T00:52:46.730Z,1004.29
2023-12-20T00:53:46.700Z,1004.28
2023-12-20T00:54:46.864Z,1004.29
2023-12-20T00:55:46.959Z,1004.22
2023-12-20T00:56:46.699Z,1004.30
2023-12-20T00:57:47.228Z,1004.26
2023-12-20T00:58:46.680Z,1004.27
2023-12-20T00:59:46.826Z,1004.23
2023-12-20T01:00:46.721Z,1004.23
2023-12-20T01:01:46.778Z,1004.26
2023-12-20T01:02:46.615Z,1004.22
2023-12-20T01:03:46.645Z,1004.20
2023-12-20T01:04:46.612Z,1004.10
2023-12-20T01:05:46.605Z,1004.20
2023-12-20T01:06:46.649Z,1004.23
2023-12-20T01:07:46.832Z,1004.27
2023-12-20T01:08:46.744Z,1004.24
2023-12-20T01:10:01.271Z,1004.24
2023-12-20T01:10:46.507Z,1004.23
2023-12-20T01:11:46.517Z,1004.26
2023-12-20T01:12:46.565Z,1004.23
2023-12-20T01:13:46.478Z,1004.30
2023-12-20T01:14:46.451Z,1004.30
2023-12-20T01:15:46.501Z,1004.30
2023-12-20T01:16:46.448Z,1004.33
2023-12-20T01:17:46.693Z,1004.32
2023-12-20T01:18:46.484Z,1004.33
2023-12-20T01:19:46.501Z,1004.29
2023-12-20T01:20:46.410Z,1004.27
2023-12-20T01:21:46.437Z,1004.26
2023-12-20T01:22:46.368Z,1004.24
2023-12-20T01:23:46.376Z,1004.24
2023-12-20T01:24:46.385Z,1004.24
2023-12-20T01:25:46.343Z,1004.25
2023-12-20T01:26:46.371Z,1004.25
2023-12-20T01:27:46.667Z,1004.24
2023-12-20T01:28:46.352Z,1004.28
2023-12-20T01:29:46.339Z,1004.26
2023-12-20T01:30:46.394Z,1004.22
2023-12-20T01:31:46.454Z,1004.22
2023-12-20T01:32:46.332Z,1004.20
2023-12-20T01:33:46.621Z,1004.23
2023-12-20T01:34:46.354Z,1004.24
2023-12-20T01:35:46.240Z,1004.26
2023-12-20T01:36:46.262Z,1004.28
2023-12-20T01:37:46.909Z,1004.25
2023-12-20T01:38:46.201Z,1004.24
2023-12-20T01:39:46.241Z,1004.25
2023-12-20T01:40:46.194Z,1004.26
2023-12-20T01:41:46.206Z,1004.24
2023-12-20T01:42:46.155Z,1004.26
2023-12-20T01:43:51.279Z,1004.24
2023-12-20T01:44:47.183Z,1004.25
2023-12-20T01:45:46.146Z,1004.20
2023-12-20T01:46:46.123Z,1004.23
2023-12-20T01:47:46.385Z,1004.20
2023-12-20T01:48:46.211Z,1004.14
2023-12-20T01:49:46.130Z,1004.15
2023-12-20T01:50:46.119Z,1004.15
2023-12-20T01:51:46.091Z,1004.12
2023-12-20T01:52:46.045Z,1004.07
2023-12-20T01:53:46.116Z,1004.03
2023-12-20T01:54:46.048Z,1004.04
2023-12-20T01:55:46.054Z,1004.03
2023-12-20T01:56:46.039Z,1004.10
2023-12-20T01:57:46.518Z,1004.07
2023-12-20T01:58:46.039Z,1004.07
2023-12-20T01:59:45.994Z,1004.15
2023-12-20T02:00:46.052Z,1004.14
2023-12-20T02:01:46.043Z,1004.12
2023-12-20T02:02:45.951Z,1004.11
2023-12-20T02:03:46.002Z,1004.06
2023-12-20T02:04:46.012Z,1004.03
2023-12-20T02:05:45.902Z,1003.96
2023-12-20T02:06:45.951Z,1003.97
2023-12-20T02:07:46.176Z,1003.96
2023-12-20T02:08:45.904Z,1004.02
2023-12-20T02:09:45.873Z,1004.00
2023-12-20T02:10:45.872Z,1004.04
2023-12-20T02:11:45.864Z,1004.04
2023-12-20T02:12:45.960Z,1003.99
2023-12-20T02:13:45.800Z,1003.98
2023-12-20T02:14:45.844Z,1003.94
2023-12-20T02:15:45.800Z,1003.86
2023-12-20T02:16:45.788Z,1003.89
2023-12-20T02:17:46.060Z,1003.88
2023-12-20T02:18:45.947Z,1003.89
2023-12-20T02:19:45.829Z,1003.92
2023-12-20T02:20:45.860Z,1003.92
2023-12-20T02:21:45.817Z,1003.92
2023-12-20T02:22:45.701Z,1003.94
2023-12-20T02:23:45.745Z,1003.96
2023-12-20T02:24:45.785Z,1003.96
2023-12-20T02:25:45.925Z,1003.97
2023-12-20T02:26:47.250Z,1003.96
2023-12-20T02:27:46.416Z,1003.96
2023-12-20T02:28:45.651Z,1003.97
2023-12-20T02:29:45.664Z,1003.94
2023-12-20T02:30:45.687Z,1003.93
2023-12-20T02:31:46.181Z,1003.93
2023-12-20T02:32:45.686Z,1003.88
2023-12-20T02:33:45.632Z,1003.91
2023-12-20T02:34:45.694Z,1003.93
2023-12-20T02:35:45.576Z,1003.97
2023-12-20T02:36:45.577Z,1003.97
2023-12-20T02:37:45.849Z,1003.98
2023-12-20T02:38:45.574Z,1003.98
2023-12-20T02:39:45.592Z,1003.96
2023-12-20T02:40:49.600Z,1003.94
2023-12-20T02:41:45.568Z,1003.88
2023-12-20T02:42:45.524Z,1003.88
2023-12-20T02:43:45.505Z,1003.85
2023-12-20T02:44:45.592Z,1003.86
2023-12-20T02:45:45.535Z,1003.86
2023-12-20T02:46:45.479Z,1003.85
2023-12-20T02:47:45.653Z,1003.83
2023-12-20T02:48:45.546Z,1003.83
2023-12-20T02:49:45.575Z,1003.78
2023-12-20T02:50:45.404Z,1003.77
2023-12-20T02:51:45.552Z,1003.76
2023-12-20T02:52:45.402Z,1003.80
2023-12-20T02:53:45.391Z,1003.76
2023-12-20T02:54:45.409Z,1003.79
2023-12-20T02:55:45.871Z,1003.79
2023-12-20T02:56:45.359Z,1003.84
2023-12-20T02:57:45.580Z,1003.86
2023-12-20T02:58:45.347Z,1003.88
2023-12-20T02:59:45.347Z,1003.91
2023-12-20T03:00:45.425Z,1003.90
2023-12-20T03:01:45.434Z,1003.88
2023-12-20T03:02:45.289Z,1003.89
2023-12-20T03:03:45.312Z,1003.89
2023-12-20T03:04:45.363Z,1003.92
2023-12-20T03:05:45.296Z,1003.91
2023-12-20T03:06:45.246Z,1003.86
2023-12-20T03:07:45.777Z,1003.80
2023-12-20T03:08:45.239Z,1003.79
2023-12-20T03:09:59.737Z,1003.80
2023-12-20T03:10:46.337Z,1003.78
2023-12-20T03:11:45.185Z,1003.77
2023-12-20T03:12:45.211Z,1003.78
2023-12-20T03:13:45.167Z,1003.79
2023-12-20T03:14:45.179Z,1003.83
2023-12-20T03:15:45.168Z,1003.88
2023-12-20T03:16:45.115Z,1003.90
2023-12-20T03:17:45.878Z,1003.93
2023-12-20T03:18:45.123Z,1003.98
2023-12-20T03:19:45.168Z,1003.99
2023-12-20T03:20:45.111Z,1003.97
2023-12-20T03:21:45.106Z,1003.96
2023-12-20T03:22:45.116Z,1003.88
2023-12-20T03:23:45.067Z,1003.87
2023-12-20T03:24:45.048Z,1003.94
2023-12-20T03:25:45.114Z,1003.98
2023-12-20T03:26:45.025Z,1003.99
2023-12-20T03:27:45.318Z,1003.99
2023-12-20T03:28:45.040Z,1004.02
2023-12-20T03:29:45.017Z,1004.04
2023-12-20T03:30:45.073Z,1004.00
2023-12-20T03:31:45.034Z,1003.97
2023-12-20T03:32:44.970Z,1003.96
2023-12-20T03:33:45.030Z,1003.95
2023-12-20T03:34:45.042Z,1003.93
2023-12-20T03:35:44.993Z,1003.89
2023-12-20T03:36:44.948Z,1003.96
2023-12-20T03:37:45.106Z,1003.95
2023-12-20T03:38:44.943Z,1003.96
2023-12-20T03:39:44.887Z,1003.95
2023-12-20T03:40:44.859Z,1003.91
2023-12-20T03:41:44.868Z,1003.94
2023-12-20T03:42:44.937Z,1004.00
2023-12-20T03:43:44.823Z,1004.03
2023-12-20T03:44:44.819Z,1004.07
2023-12-20T03:45:45.036Z,1004.05
2023-12-20T03:46:44.816Z,1004.01
2023-12-20T03:47:45.222Z,1004.00
2023-12-20T03:48:44.814Z,1003.95
2023-12-20T03:49:44.822Z,1003.99
2023-12-20T03:50:44.813Z,1003.97
2023-12-20T03:51:44.811Z,1003.99
2023-12-20T03:52:44.768Z,1003.99
2023-12-20T03:53:44.727Z,1004.04
2023-12-20T03:54:44.784Z,1004.00
2023-12-20T03:55:44.782Z,1004.00
2023-12-20T03:56:44.705Z,1003.93
2023-12-20T03:57:45.002Z,1003.97
2023-12-20T03:58:44.690Z,1003.98
2023-12-20T03:59:44.687Z,1003.95
2023-12-20T04:00:44.738Z,1003.95
2023-12-20T04:01:44.754Z,1003.91
2023-12-20T04:02:44.655Z,1003.86
2023-12-20T04:03:44.670Z,1003.88
2023-12-20T04:04:44.662Z,1003.79
2023-12-20T04:05:44.627Z,1003.76
2023-12-20T04:06:44.647Z,1003.75
2023-12-20T04:07:44.929Z,1003.74
2023-12-20T04:08:44.592Z,1003.74
2023-12-20T04:09:44.595Z,1003.75
2023-12-20T04:10:44.527Z,1003.78
2023-12-20T04:11:44.553Z,1003.77
2023-12-20T04:12:44.586Z,1003.76
2023-12-20T04:13:44.511Z,1003.80
2023-12-20T04:14:44.519Z,1003.78
2023-12-20T04:15:44.500Z,1003.80
2023-12-20T04:16:47.533Z,1003.79
2023-12-20T04:17:44.688Z,1003.70
2023-12-20T04:18:44.607Z,1003.75
2023-12-20T04:19:44.535Z,1003.73
2023-12-20T04:20:44.429Z,1003.69
2023-12-20T04:21:44.521Z,1003.67
2023-12-20T04:22:44.395Z,1003.66
2023-12-20T04:23:44.431Z,1003.62
2023-12-20T04:24:44.465Z,1003.65
2023-12-20T04:25:44.389Z,1003.68
2023-12-20T04:26:44.355Z,1003.75
2023-12-20T04:27:44.673Z,1003.74
2023-12-20T04:28:44.354Z,1003.72
2023-12-20T04:29:44.388Z,1003.69
2023-12-20T04:30:44.386Z,1003.74
2023-12-20T04:31:44.331Z,1003.72
2023-12-20T04:32:44.332Z,1003.68
2023-12-20T04:33:44.339Z,1003.61
2023-12-20T04:34:44.326Z,1003.63
2023-12-20T04:35:44.271Z,1003.60
2023-12-20T04:36:44.321Z,1003.65
2023-12-20T04:37:44.609Z,1003.69
2023-12-20T04:38:44.242Z,1003.70
2023-12-20T04:39:44.284Z,1003.69
2023-12-20T04:40:44.249Z,1003.76
2023-12-20T04:41:44.207Z,1003.78
2023-12-20T04:42:44.234Z,1003.74
2023-12-20T04:43:44.248Z,1003.73
2023-12-20T04:44:44.160Z,1003.74
2023-12-20T04:45:44.212Z,1003.72
2023-12-20T04:46:44.147Z,1003.70
2023-12-20T04:47:44.522Z,1003.64
2023-12-20T04:48:44.230Z,1003.61
2023-12-20T04:49:44.150Z,1003.60
2023-12-20T04:50:44.154Z,1003.56
2023-12-20T04:51:44.201Z,1003.55
2023-12-20T04:52:44.097Z,1003.51
2023-12-20T04:53:44.135Z,1003.53
2023-12-20T04:54:45.226Z,1003.56
2023-12-20T04:55:44.057Z,1003.60
2023-12-20T04:56:44.062Z,1003.62
2023-12-20T04:57:44.473Z,1003.65
2023-12-20T04:58:44.037Z,1003.62
2023-12-20T04:59:44.076Z,1003.60
2023-12-20T05:00:44.060Z,1003.61
2023-12-20T05:01:44.073Z,1003.60
2023-12-20T05:02:43.985Z,1003.59
2023-12-20T05:03:43.990Z,1003.66
2023-12-20T05:04:44.021Z,1003.66
2023-12-20T05:05:43.997Z,1003.67
2023-12-20T05:06:44.112Z,1003.66
2023-12-20T05:07:44.313Z,1003.67
2023-12-20T05:08:43.922Z,1003.65
2023-12-20T05:09:43.975Z,1003.65
2023-12-20T05:10:43.882Z,1003.64
2023-12-20T05:11:43.909Z,1003.60
2023-12-20T05:12:44.000Z,1003.57
2023-12-20T05:13:48.068Z,1003.57
2023-12-20T05:14:44.861Z,1003.62
2023-12-20T05:15:43.889Z,1003.65
2023-12-20T05:16:43.828Z,1003.63
2023-12-20T05:17:44.089Z,1003.66
2023-12-20T05:18:43.793Z,1003.74
2023-12-20T05:19:43.796Z,1003.70
2023-12-20T05:20:43.780Z,1003.70
2023-12-20T05:21:43.822Z,1003.70
2023-12-20T05:22:43.792Z,1003.66
2023-12-20T05:23:43.743Z,1003.69
2023-12-20T05:24:43.759Z,1003.67
2023-12-20T05:25:43.774Z,1003.71
2023-12-20T05:26:43.723Z,1003.73
2023-12-20T05:27:44.078Z,1003.66
2023-12-20T05:28:43.700Z,1003.75
2023-12-20T05:29:43.674Z,1003.70
2023-12-20T05:30:43.725Z,1003.69
2023-12-20T05:31:43.755Z,1003.71
2023-12-20T05:32:43.675Z,1003.72
2023-12-20T05:33:43.841Z,1003.75
2023-12-20T05:34:43.706Z,1003.76
2023-12-20T05:35:43.687Z,1003.76
2023-12-20T05:36:43.640Z,1003.76
2023-12-20T05:37:43.909Z,1003.75
2023-12-20T05:38:43.588Z,1003.77
2023-12-20T05:39:43.613Z,1003.74
2023-12-20T05:40:43.548Z,1003.74
2023-12-20T05:41:43.573Z,1003.74
2023-12-20T05:42:43.566Z,1003.77
2023-12-20T05:43:43.565Z,1003.81
2023-12-20T05:44:43.533Z,1003.79
2023-12-20T05:45:43.704Z,1003.83
2023-12-20T05:46:43.486Z,1003.77
2023-12-20T05:47:43.788Z,1003.76
2023-12-20T05:48:43.592Z,1003.76
2023-12-20T05:49:43.584Z,1003.76
2023-12-20T05:50:43.444Z,1003.72
2023-12-20T05:51:43.496Z,1003.71
2023-12-20T05:52:43.468Z,1003.73
2023-12-20T05:53:43.427Z,1003.71
2023-12-20T05:54:43.444Z,1003.72
2023-12-20T05:55:43.412Z,1003.76
2023-12-20T05:56:43.388Z,1003.76
2023-12-20T05:57:43.605Z,1003.73
2023-12-20T05:58:43.375Z,1003.71
2023-12-20T05:59:43.386Z,1003.74
2023-12-20T06:00:43.405Z,1003.75
2023-12-20T06:01:43.403Z,1003.77
2023-12-20T06:02:43.371Z,1003.72
2023-12-20T06:03:43.348Z,1003.68
2023-12-20T06:04:43.456Z,1003.69
2023-12-20T06:05:43.291Z,1003.65
2023-12-20T06:06:43.448Z,1003.64
2023-12-20T06:07:43.573Z,1003.59
2023-12-20T06:08:43.268Z,1003.58
2023-12-20T06:09:43.307Z,1003.54
2023-12-20T06:10:43.249Z,1003.56
2023-12-20T06:11:43.225Z,1003.57
2023-12-20T06:12:43.248Z,1003.56
2023-12-20T06:13:43.214Z,1003.55
2023-12-20T06:14:43.185Z,1003.55
2023-12-20T06:15:43.224Z,1003.50
2023-12-20T06:16:43.154Z,1003.49
2023-12-20T06:17:43.452Z,1003.53
2023-12-20T06:18:43.232Z,1003.48
2023-12-20T06:19:43.239Z,1003.45
2023-12-20T06:20:43.117Z,1003.49
2023-12-20T06:21:45.141Z,1003.48
2023-12-20T06:22:43.112Z,1003.43
2023-12-20T06:23:43.282Z,1003.48
2023-12-20T06:24:43.112Z,1003.46
2023-12-20T06:25:43.119Z,1003.51
2023-12-20T06:26:43.132Z,1003.48
2023-12-20T06:27:43.203Z,1003.49
2023-12-20T06:28:43.144Z,1003.49
2023-12-20T06:29:43.023Z,1003.48
2023-12-20T06:30:43.115Z,1003.50
2023-12-20T06:31:43.152Z,1003.49
2023-12-20T06:32:43.024Z,1003.50
2023-12-20T06:33:43.015Z,1003.54
2023-12-20T06:34:43.064Z,1003.53
2023-12-20T06:35:42.968Z,1003.50
2023-12-20T06:36:42.988Z,1003.51
2023-12-20T06:37:43.229Z,1003.52
2023-12-20T06:38:42.937Z,1003.52
2023-12-20T06:39:42.995Z,1003.51
2023-12-20T06:40:42.966Z,1003.52
2023-12-20T06:41:42.925Z,1003.56
2023-12-20T06:42:50.020Z,1003.59
2023-12-20T06:43:49.756Z,1003.64
2023-12-20T06:44:43.922Z,1003.64
2023-12-20T06:45:42.942Z,1003.64
2023-12-20T06:46:42.850Z,1003.64
2023-12-20T06:47:42.950Z,1003.61
2023-12-20T06:48:43.020Z,1003.63
2023-12-20T06:49:42.979Z,1003.64
2023-12-20T06:50:42.847Z,1003.64
2023-12-20T06:51:42.828Z,1003.66
2023-12-20T06:52:42.798Z,1003.66
2023-12-20T06:53:42.797Z,1003.67
2023-12-20T06:54:42.814Z,1003.67
2023-12-20T06:55:42.743Z,1003.60
2023-12-20T06:56:42.752Z,1003.64
2023-12-20T06:57:42.890Z,1003.58
2023-12-20T06:58:42.725Z,1003.56
2023-12-20T06:59:42.726Z,1003.58
2023-12-20T07:00:42.779Z,1003.48
2023-12-20T07:01:42.707Z,1003.50
2023-12-20T07:02:42.675Z,1003.48
2023-12-20T07:03:42.750Z,1003.48
2023-12-20T07:04:42.752Z,1003.48
2023-12-20T07:05:42.664Z,1003.48
2023-12-20T07:06:42.710Z,1003.50
2023-12-20T07:07:42.794Z,1003.54
2023-12-20T07:08:42.642Z,1003.55
2023-12-20T07:09:42.616Z,1003.55
2023-12-20T07:10:42.627Z,1003.56
2023-12-20T07:11:42.585Z,1003.54
2023-12-20T07:12:42.685Z,1003.50
2023-12-20T07:13:42.561Z,1003.47
2023-12-20T07:14:42.572Z,1003.50
2023-12-20T07:15:42.638Z,1003.51
2023-12-20T07:16:42.517Z,1003.49
2023-12-20T07:17:42.612Z,1003.53
2023-12-20T07:18:42.588Z,1003.46
2023-12-20T07:19:42.553Z,1003.51
2023-12-20T07:20:42.504Z,1003.46
2023-12-20T07:21:42.496Z,1003.46
2023-12-20T07:22:42.852Z,1003.44
2023-12-20T07:23:42.479Z,1003.44
2023-12-20T07:24:42.500Z,1003.41
2023-12-20T07:25:42.442Z,1003.42
2023-12-20T07:26:42.408Z,1003.45
2023-12-20T07:27:44.712Z,1003.50
2023-12-20T07:28:42.439Z,1003.47
2023-12-20T07:29:42.404Z,1003.53
2023-12-20T07:30:42.422Z,1003.45
2023-12-20T07:31:42.400Z,1003.50
2023-12-20T07:32:42.369Z,1003.44
2023-12-20T07:33:42.459Z,1003.47
2023-12-20T07:34:42.482Z,1003.49
2023-12-20T07:35:42.423Z,1003.50
2023-12-20T07:36:42.327Z,1003.50
2023-12-20T07:37:42.450Z,1003.49
2023-12-20T07:38:42.300Z,1003.52
2023-12-20T07:39:42.320Z,1003.52
2023-12-20T07:40:42.269Z,1003.49
2023-12-20T07:41:43.896Z,1003.51
2023-12-20T07:42:42.260Z,1003.47
2023-12-20T07:43:42.332Z,1003.48
2023-12-20T07:44:42.240Z,1003.53
2023-12-20T07:45:42.252Z,1003.51
2023-12-20T07:46:42.263Z,1003.53
2023-12-20T07:47:42.249Z,1003.49
2023-12-20T07:48:44.620Z,1003.46
2023-12-20T07:49:42.232Z,1003.47
2023-12-20T07:50:42.192Z,1003.46
2023-12-20T07:51:42.248Z,1003.43
2023-12-20T07:52:42.122Z,1003.46
2023-12-20T07:53:42.153Z,1003.41
2023-12-20T07:54:42.250Z,1003.39
2023-12-20T07:55:42.081Z,1003.42
2023-12-20T07:56:42.157Z,1003.42
2023-12-20T07:57:42.201Z,1003.45
2023-12-20T07:58:50.751Z,1003.39
2023-12-20T07:59:43.098Z,1003.38
2023-12-20T08:00:42.239Z,1003.41
2023-12-20T08:01:42.103Z,1003.42
2023-12-20T08:02:42.057Z,1003.37
2023-12-20T08:03:42.177Z,1003.37
2023-12-20T08:04:42.206Z,1003.39
2023-12-20T08:05:42.145Z,1003.40
2023-12-20T08:06:42.091Z,1003.35
2023-12-20T08:07:41.973Z,1003.44
2023-12-20T08:08:42.975Z,1003.44
2023-12-20T08:09:41.957Z,1003.37
2023-12-20T08:10:41.944Z,1003.38
2023-12-20T08:11:41.931Z,1003.34
2023-12-20T08:12:41.966Z,1003.41
2023-12-20T08:13:41.948Z,1003.40
2023-12-20T08:14:41.908Z,1003.43
2023-12-20T08:15:41.927Z,1003.37
2023-12-20T08:16:41.926Z,1003.42
2023-12-20T08:17:41.922Z,1003.42
2023-12-20T08:18:41.940Z,1003.41
2023-12-20T08:19:42.047Z,1003.38
2023-12-20T08:20:42.094Z,1003.35
2023-12-20T08:21:41.883Z,1003.41
2023-12-20T08:22:41.871Z,1003.41
2023-12-20T08:23:41.785Z,1003.39
2023-12-20T08:24:41.894Z,1003.40
2023-12-20T08:25:41.781Z,1003.37
2023-12-20T08:26:41.808Z,1003.32
2023-12-20T08:27:41.758Z,1003.37
2023-12-20T08:28:41.751Z,1003.37
2023-12-20T08:29:41.708Z,1003.35
2023-12-20T08:30:41.895Z,1003.36
2023-12-20T08:31:41.761Z,1003.35
2023-12-20T08:32:41.717Z,1003.39
2023-12-20T08:33:41.692Z,1003.37
2023-12-20T08:34:41.824Z,1003.35
2023-12-20T08:35:41.676Z,1003.31
2023-12-20T08:36:41.758Z,1003.33
2023-12-20T08:37:41.702Z,1003.28
2023-12-20T08:38:41.718Z,1003.34
2023-12-20T08:39:44.998Z,1003.34
2023-12-20T08:40:41.639Z,1003.33
2023-12-20T08:41:41.642Z,1003.39
2023-12-20T08:42:41.608Z,1003.32
2023-12-20T08:43:41.558Z,1003.31
2023-12-20T08:44:41.617Z,1003.38
2023-12-20T08:45:41.579Z,1003.38
2023-12-20T08:46:41.621Z,1003.40
2023-12-20T08:47:41.574Z,1003.41
2023-12-20T08:48:41.787Z,1003.35
2023-12-20T08:49:41.695Z,1003.35
2023-12-20T08:50:41.690Z,1003.34
2023-12-20T08:51:41.498Z,1003.36
2023-12-20T08:52:41.465Z,1003.35
2023-12-20T08:53:41.478Z,1003.34
2023-12-20T08:54:42.687Z,1003.31
2023-12-20T08:55:41.455Z,1003.24
2023-12-20T08:56:41.461Z,1003.32
2023-12-20T08:57:41.465Z,1003.26
2023-12-20T08:58:41.430Z,1003.27
2023-12-20T08:59:41.422Z,1003.27
2023-12-20T09:00:41.433Z,1003.29
2023-12-20T09:01:41.466Z,1003.22
2023-12-20T09:02:41.377Z,1003.26
2023-12-20T09:03:41.418Z,1003.25
2023-12-20T09:04:41.476Z,1003.26
2023-12-20T09:05:41.364Z,1003.28
2023-12-20T09:06:41.403Z,1003.14
2023-12-20T09:07:41.324Z,1003.16
2023-12-20T09:08:41.387Z,1003.19
2023-12-20T09:09:41.317Z,1003.25
2023-12-20T09:10:41.303Z,1003.23
2023-12-20T09:11:41.288Z,1003.25
2023-12-20T09:12:41.257Z,1003.22
2023-12-20T09:13:41.251Z,1003.24
2023-12-20T09:14:41.314Z,1003.27
2023-12-20T09:15:41.245Z,1003.31
2023-12-20T09:16:41.232Z,1003.28
2023-12-20T09:17:41.313Z,1003.30
2023-12-20T09:18:41.198Z,1003.24
2023-12-20T09:19:41.308Z,1003.30
2023-12-20T09:20:43.268Z,1003.30
2023-12-20T09:21:41.169Z,1003.25
2023-12-20T09:22:41.176Z,1003.26
2023-12-20T09:23:41.162Z,1003.19
2023-12-20T09:24:41.170Z,1003.23
2023-12-20T09:25:41.165Z,1003.22
2023-12-20T09:26:41.124Z,1003.24
2023-12-20T09:27:41.099Z,1003.21
2023-12-20T09:28:41.295Z,1003.15
2023-12-20T09:29:41.108Z,1003.13
2023-12-20T09:30:41.521Z,1003.13
2023-12-20T09:31:41.160Z,1003.06
2023-12-20T09:32:41.054Z,1003.14
2023-12-20T09:33:41.208Z,1003.12
2023-12-20T09:34:41.176Z,1003.14
2023-12-20T09:35:41.191Z,1003.08
2023-12-20T09:36:41.005Z,1003.03
2023-12-20T09:37:40.999Z,1003.05
2023-12-20T09:38:40.981Z,1003.08
2023-12-20T09:39:40.978Z,1003.01
2023-12-20T09:40:41.006Z,1003.00
2023-12-20T09:41:41.019Z,1003.08
2023-12-20T09:42:40.967Z,1003.10
2023-12-20T09:43:40.953Z,1003.07
2023-12-20T09:44:40.918Z,1003.04
2023-12-20T09:45:40.962Z,1003.03
2023-12-20T09:46:40.954Z,1002.95
2023-12-20T09:47:40.906Z,1003.01
2023-12-20T09:48:40.940Z,1002.96
2023-12-20T09:49:40.940Z,1003.04
2023-12-20T09:50:40.853Z,1003.02
2023-12-20T09:51:40.903Z,1003.00
2023-12-20T09:52:40.844Z,1002.96
2023-12-20T09:53:40.829Z,1002.90
2023-12-20T09:54:40.836Z,1002.96
2023-12-20T09:55:40.801Z,1002.86
2023-12-20T09:56:40.840Z,1002.85
2023-12-20T09:57:40.790Z,1002.84
2023-12-20T09:58:40.947Z,1002.77
2023-12-20T09:59:40.746Z,1002.89
2023-12-20T10:00:40.780Z,1002.80
2023-12-20T10:01:40.845Z,1002.82
2023-12-20T10:02:40.749Z,1002.79
2023-12-20T10:03:40.680Z,1002.82
2023-12-20T10:04:40.837Z,1002.79
2023-12-20T10:05:40.766Z,1002.77
2023-12-20T10:06:40.717Z,1002.70
2023-12-20T10:07:40.724Z,1002.77
2023-12-20T10:08:40.739Z,1002.76
2023-12-20T10:09:40.624Z,1002.70
2023-12-20T10:10:45.799Z,1002.68
2023-12-20T10:11:41.625Z,1002.67
2023-12-20T10:12:40.601Z,1002.68
2023-12-20T10:13:40.758Z,1002.60
2023-12-20T10:14:40.585Z,1002.54
2023-12-20T10:15:40.601Z,1002.55
2023-12-20T10:16:40.625Z,1002.58
2023-12-20T10:17:40.606Z,1002.52
2023-12-20T10:18:40.791Z,1002.48
2023-12-20T10:19:40.613Z,1002.49
2023-12-20T10:20:40.587Z,1002.35
2023-12-20T10:21:40.510Z,1002.38
2023-12-20T10:22:40.557Z,1002.38
2023-12-20T10:23:40.497Z,1002.39
2023-12-20T10:24:40.488Z,1002.38
2023-12-20T10:25:40.486Z,1002.41
2023-12-20T10:26:40.480Z,1002.33
2023-12-20T10:27:40.543Z,1002.37
2023-12-20T10:28:40.724Z,1002.31
2023-12-20T10:29:40.463Z,1002.34
2023-12-20T10:30:40.506Z,1002.36
2023-12-20T10:31:40.700Z,1002.35
2023-12-20T10:32:40.470Z,1002.30
2023-12-20T10:33:40.395Z,1002.32
2023-12-20T10:34:40.629Z,1002.27
2023-12-20T10:35:43.647Z,1002.28
2023-12-20T10:36:41.355Z,1002.29
2023-12-20T10:37:40.350Z,1002.24
2023-12-20T10:38:40.360Z,1002.24
2023-12-20T10:39:40.387Z,1002.20
2023-12-20T10:40:40.483Z,1002.23
2023-12-20T10:41:40.306Z,1002.26
2023-12-20T10:42:40.295Z,1002.27
2023-12-20T10:43:40.399Z,1002.22
2023-12-20T10:44:40.367Z,1002.20
2023-12-20T10:45:40.295Z,1002.23
2023-12-20T10:46:40.280Z,1002.15
2023-12-20T10:47:40.872Z,1002.13
2023-12-20T10:48:40.294Z,1002.11
2023-12-20T10:49:40.312Z,1002.04
2023-12-20T10:50:40.220Z,1001.99
2023-12-20T10:51:40.218Z,1001.97
2023-12-20T10:52:40.244Z,1001.98
2023-12-20T10:53:40.179Z,1001.91
2023-12-20T10:54:40.188Z,1001.87
2023-12-20T10:55:40.145Z,1001.82
2023-12-20T10:56:40.124Z,1001.86
2023-12-20T10:57:40.140Z,1001.88
2023-12-20T10:58:40.186Z,1001.88
2023-12-20T10:59:40.103Z,1001.92
2023-12-20T11:00:40.200Z,1001.91
2023-12-20T11:01:40.179Z,1001.91
2023-12-20T11:02:40.059Z,1001.91
2023-12-20T11:03:40.136Z,1001.91
2023-12-20T11:04:40.202Z,1001.89
2023-12-20T11:05:40.096Z,1001.88
2023-12-20T11:06:40.093Z,1001.85
2023-12-20T11:07:40.222Z,1001.85
2023-12-20T11:08:40.016Z,1001.85
2023-12-20T11:09:40.034Z,1001.87
2023-12-20T11:10:39.994Z,1001.84
2023-12-20T11:11:40.080Z,1001.77
2023-12-20T11:12:40.051Z,1001.78
2023-12-20T11:13:39.958Z,1001.78
2023-12-20T11:14:39.936Z,1001.77
2023-12-20T11:15:39.966Z,1001.75
2023-12-20T11:16:48.174Z,1001.61
2023-12-20T11:17:40.946Z,1001.69
2023-12-20T11:18:40.062Z,1001.65
2023-12-20T11:19:39.988Z,1001.70
2023-12-20T11:20:39.931Z,1001.75
2023-12-20T11:21:39.863Z,1001.73
2023-12-20T11:22:41.797Z,1001.65
2023-12-20T11:23:39.842Z,1001.66
2023-12-20T11:24:39.864Z,1001.61
2023-12-20T11:25:39.845Z,1001.59
2023-12-20T11:26:39.818Z,1001.64
2023-12-20T11:27:39.785Z,1001.55
2023-12-20T11:28:39.922Z,1001.58
2023-12-20T11:29:39.784Z,1001.50
2023-12-20T11:30:39.794Z,1001.41
2023-12-20T11:31:39.788Z,1001.44
2023-12-20T11:32:39.801Z,1001.44
2023-12-20T11:33:39.758Z,1001.39
2023-12-20T11:34:39.816Z,1001.31
2023-12-20T11:35:39.759Z,1001.34
2023-12-20T11:36:39.745Z,1001.30
2023-12-20T11:37:39.794Z,1001.27
2023-12-20T11:38:39.720Z,1001.27
2023-12-20T11:39:39.705Z,1001.25
2023-12-20T11:40:39.693Z,1001.22
2023-12-20T11:41:39.638Z,1001.20
2023-12-20T11:42:39.646Z,1001.24
2023-12-20T11:43:39.652Z,1001.21
2023-12-20T11:44:39.625Z,1001.25
2023-12-20T11:45:39.625Z,1001.16
2023-12-20T11:46:39.658Z,1001.18
2023-12-20T11:47:39.624Z,1001.09
2023-12-20T11:48:39.669Z,1001.05
2023-12-20T11:49:39.877Z,1001.01
2023-12-20T11:50:39.854Z,1001.04
2023-12-20T11:51:39.613Z,1000.99
2023-12-20T11:52:39.557Z,1000.95
2023-12-20T11:53:39.558Z,1000.91
2023-12-20T11:54:39.547Z,1000.91
2023-12-20T11:55:39.536Z,1000.92
2023-12-20T11:56:39.492Z,1000.95
2023-12-20T11:57:39.508Z,1000.85
2023-12-20T11:58:39.503Z,1000.85
2023-12-20T11:59:39.486Z,1000.86
2023-12-20T12:00:39.447Z,1000.88
2023-12-20T12:01:39.602Z,1000.89
2023-12-20T12:02:39.410Z,1000.92
2023-12-20T12:03:39.420Z,1000.82
2023-12-20T12:04:39.582Z,1000.84
2023-12-20T12:05:39.440Z,1000.85